sensor_id;sensor_type;location;lat;lon;timestamp;temperature;humidity
41720;DHT22;27405;53.316;-6.294;2022-10-31T00:00:48;12.90;99.90
41720;DHT22;27405;53.316;-6.294;2022-10-31T00:03:14;12.90;99.90
41720;DHT22;27405;53.316;-6.294;2022-10-31T00:05:49;12.90;99.90
41720;DHT22;27405;53.316;-6.294;2022-10-31T00:08:16;13.00;99.90
41720;DHT22;27405;53.316;-6.294;2022-10-31T00:10:42;13.10;99.90
41720;DHT22;27405;53.316;-6.294;2022-10-31T00:13:09;13.20;99.90
41720;DHT22;27405;53.316;-6.294;2022-10-31T00:15:36;13.30;99.90
41720;DHT22;27405;53.316;-6.294;2022-10-31T00:18:03;13.30;99.90
41720;DHT22;27405;53.316;-6.294;2022-10-31T00:20:29;13.30;99.90
41720;DHT22;27405;53.316;-6.294;2022-10-31T00:23:02;13.30;99.90
41720;DHT22;27405;53.316;-6.294;2022-10-31T00:25:32;13.20;99.90
41720;DHT22;27405;53.316;-6.294;2022-10-31T00:27:58;13.20;99.90
41720;DHT22;27405;53.316;-6.294;2022-10-31T00:30:24;13.10;99.90
41720;DHT22;27405;53.316;-6.294;2022-10-31T00:32:50;13.10;99.90
41720;DHT22;27405;53.316;-6.294;2022-10-31T00:35:15;13.10;99.90
41720;DHT22;27405;53.316;-6.294;2022-10-31T00:37:41;13.10;99.90
41720;DHT22;27405;53.316;-6.294;2022-10-31T00:40:07;13.20;99.90
41720;DHT22;27405;53.316;-6.294;2022-10-31T00:42:33;13.20;99.90
41720;DHT22;27405;53.316;-6.294;2022-10-31T00:44:59;13.20;99.90
41720;DHT22;27405;53.316;-6.294;2022-10-31T00:47:24;13.20;99.90
41720;DHT22;27405;53.316;-6.294;2022-10-31T00:49:50;13.10;99.90
41720;DHT22;27405;53.316;-6.294;2022-10-31T00:52:16;13.10;99.90
41720;DHT22;27405;53.316;-6.294;2022-10-31T00:54:41;13.10;99.90
41720;DHT22;27405;53.316;-6.294;2022-10-31T00:57:07;13.10;99.90
41720;DHT22;27405;53.316;-6.294;2022-10-31T00:59:32;13.10;99.90
41720;DHT22;27405;53.316;-6.294;2022-10-31T01:01:58;13.10;99.90
41720;DHT22;27405;53.316;-6.294;2022-10-31T01:04:24;13.20;99.90
41720;DHT22;27405;53.316;-6.294;2022-10-31T01:06:49;13.20;99.90
41720;DHT22;27405;53.316;-6.294;2022-10-31T01:09:15;13.20;99.90
41720;DHT22;27405;53.316;-6.294;2022-10-31T01:11:41;13.20;99.90
41720;DHT22;27405;53.316;-6.294;2022-10-31T01:14:07;13.20;99.90
41720;DHT22;27405;53.316;-6.294;2022-10-31T01:16:33;13.20;99.90
41720;DHT22;27405;53.316;-6.294;2022-10-31T01:18:59;13.20;99.90
41720;DHT22;27405;53.316;-6.294;2022-10-31T01:21:27;13.30;99.90
41720;DHT22;27405;53.316;-6.294;2022-10-31T01:23:53;13.30;99.90
41720;DHT22;27405;53.316;-6.294;2022-10-31T01:26:25;13.30;99.90
41720;DHT22;27405;53.316;-6.294;2022-10-31T01:28:56;13.30;99.90
41720;DHT22;27405;53.316;-6.294;2022-10-31T01:31:24;13.30;99.90
41720;DHT22;27405;53.316;-6.294;2022-10-31T01:33:51;13.40;99.90
41720;DHT22;27405;53.316;-6.294;2022-10-31T01:36:20;13.40;99.90
41720;DHT22;27405;53.316;-6.294;2022-10-31T01:38:47;13.40;99.90
41720;DHT22;27405;53.316;-6.294;2022-10-31T01:41:19;13.40;99.90
41720;DHT22;27405;53.316;-6.294;2022-10-31T01:46:11;13.40;99.90
41720;DHT22;27405;53.316;-6.294;2022-10-31T01:48:39;13.40;99.90
41720;DHT22;27405;53.316;-6.294;2022-10-31T01:51:05;13.50;99.90
41720;DHT22;27405;53.316;-6.294;2022-10-31T01:53:32;13.50;99.90
41720;DHT22;27405;53.316;-6.294;2022-10-31T01:55:59;13.50;99.90
41720;DHT22;27405;53.316;-6.294;2022-10-31T01:58:28;13.50;99.90
41720;DHT22;27405;53.316;-6.294;2022-10-31T02:00:58;13.50;99.90
41720;DHT22;27405;53.316;-6.294;2022-10-31T02:03:25;13.60;99.90
41720;DHT22;27405;53.316;-6.294;2022-10-31T02:05:53;13.60;99.90
41720;DHT22;27405;53.316;-6.294;2022-10-31T02:08:24;13.70;99.90
41720;DHT22;27405;53.316;-6.294;2022-10-31T02:10:51;13.70;99.90
41720;DHT22;27405;53.316;-6.294;2022-10-31T02:13:17;13.70;99.90
41720;DHT22;27405;53.316;-6.294;2022-10-31T02:15:45;13.70;99.90
41720;DHT22;27405;53.316;-6.294;2022-10-31T02:18:12;13.70;99.90
41720;DHT22;27405;53.316;-6.294;2022-10-31T02:23:36;13.60;99.90
41720;DHT22;27405;53.316;-6.294;2022-10-31T02:29:29;13.60;99.90
41720;DHT22;27405;53.316;-6.294;2022-10-31T02:35:10;13.60;99.90
41720;DHT22;27405;53.316;-6.294;2022-10-31T02:37:47;13.60;99.90
41720;DHT22;27405;53.316;-6.294;2022-10-31T02:40:26;13.70;99.90
41720;DHT22;27405;53.316;-6.294;2022-10-31T02:45:44;13.70;99.90
41720;DHT22;27405;53.316;-6.294;2022-10-31T02:48:14;13.70;99.90
41720;DHT22;27405;53.316;-6.294;2022-10-31T02:50:52;13.80;99.90
41720;DHT22;27405;53.316;-6.294;2022-10-31T02:53:20;13.80;99.90
41720;DHT22;27405;53.316;-6.294;2022-10-31T02:55:56;13.80;99.90
41720;DHT22;27405;53.316;-6.294;2022-10-31T02:58:26;13.80;99.90
41720;DHT22;27405;53.316;-6.294;2022-10-31T03:06:45;13.80;99.90
41720;DHT22;27405;53.316;-6.294;2022-10-31T03:09:24;13.80;99.90
41720;DHT22;27405;53.316;-6.294;2022-10-31T03:12:11;13.80;99.90
41720;DHT22;27405;53.316;-6.294;2022-10-31T03:14:51;13.80;99.90
41720;DHT22;27405;53.316;-6.294;2022-10-31T03:17:29;13.80;99.90
41720;DHT22;27405;53.316;-6.294;2022-10-31T03:20:01;13.80;99.90
41720;DHT22;27405;53.316;-6.294;2022-10-31T03:22:29;13.80;99.90
41720;DHT22;27405;53.316;-6.294;2022-10-31T03:24:58;13.80;99.90
41720;DHT22;27405;53.316;-6.294;2022-10-31T03:27:27;13.80;99.90
41720;DHT22;27405;53.316;-6.294;2022-10-31T03:29:58;13.80;99.90
41720;DHT22;27405;53.316;-6.294;2022-10-31T03:32:36;13.80;99.90
41720;DHT22;27405;53.316;-6.294;2022-10-31T03:35:06;13.80;99.90
41720;DHT22;27405;53.316;-6.294;2022-10-31T03:37:34;13.80;99.90
41720;DHT22;27405;53.316;-6.294;2022-10-31T03:40:05;13.80;99.90
41720;DHT22;27405;53.316;-6.294;2022-10-31T03:42:34;13.80;99.90
41720;DHT22;27405;53.316;-6.294;2022-10-31T03:45:07;13.80;99.90
41720;DHT22;27405;53.316;-6.294;2022-10-31T03:47:36;13.80;99.90
41720;DHT22;27405;53.316;-6.294;2022-10-31T03:50:04;13.80;99.90
41720;DHT22;27405;53.316;-6.294;2022-10-31T03:52:55;13.80;99.90
41720;DHT22;27405;53.316;-6.294;2022-10-31T03:55:52;13.80;99.90
41720;DHT22;27405;53.316;-6.294;2022-10-31T03:58:26;13.80;99.90
41720;DHT22;27405;53.316;-6.294;2022-10-31T04:00:55;13.80;99.90
41720;DHT22;27405;53.316;-6.294;2022-10-31T04:03:25;13.80;99.90
41720;DHT22;27405;53.316;-6.294;2022-10-31T04:05:54;13.80;99.90
41720;DHT22;27405;53.316;-6.294;2022-10-31T04:08:21;13.80;99.90
41720;DHT22;27405;53.316;-6.294;2022-10-31T04:10:49;13.80;99.90
41720;DHT22;27405;53.316;-6.294;2022-10-31T04:13:24;13.80;99.90
41720;DHT22;27405;53.316;-6.294;2022-10-31T04:15:53;13.80;99.90
41720;DHT22;27405;53.316;-6.294;2022-10-31T04:18:21;13.80;99.90
41720;DHT22;27405;53.316;-6.294;2022-10-31T04:20:47;13.70;99.90
41720;DHT22;27405;53.316;-6.294;2022-10-31T04:23:20;13.70;99.90
41720;DHT22;27405;53.316;-6.294;2022-10-31T04:25:46;13.70;99.90
41720;DHT22;27405;53.316;-6.294;2022-10-31T04:28:11;13.70;99.90
41720;DHT22;27405;53.316;-6.294;2022-10-31T04:30:37;13.70;99.90
41720;DHT22;27405;53.316;-6.294;2022-10-31T04:33:03;13.70;99.90
41720;DHT22;27405;53.316;-6.294;2022-10-31T04:35:28;13.70;99.90
41720;DHT22;27405;53.316;-6.294;2022-10-31T04:37:54;13.60;99.90
41720;DHT22;27405;53.316;-6.294;2022-10-31T04:40:20;13.60;99.90
41720;DHT22;27405;53.316;-6.294;2022-10-31T04:42:45;13.60;99.90
41720;DHT22;27405;53.316;-6.294;2022-10-31T04:45:11;13.70;99.90
41720;DHT22;27405;53.316;-6.294;2022-10-31T04:47:37;13.70;99.90
41720;DHT22;27405;53.316;-6.294;2022-10-31T04:50:03;13.70;99.90
41720;DHT22;27405;53.316;-6.294;2022-10-31T04:52:28;13.80;99.90
41720;DHT22;27405;53.316;-6.294;2022-10-31T04:54:54;13.70;99.90
41720;DHT22;27405;53.316;-6.294;2022-10-31T04:57:20;13.70;99.90
41720;DHT22;27405;53.316;-6.294;2022-10-31T04:59:45;13.80;99.90
41720;DHT22;27405;53.316;-6.294;2022-10-31T05:02:11;13.70;99.90
41720;DHT22;27405;53.316;-6.294;2022-10-31T05:04:36;13.70;99.90
41720;DHT22;27405;53.316;-6.294;2022-10-31T05:07:02;13.80;99.90
41720;DHT22;27405;53.316;-6.294;2022-10-31T05:09:28;13.80;99.90
41720;DHT22;27405;53.316;-6.294;2022-10-31T05:11:53;13.80;99.90
41720;DHT22;27405;53.316;-6.294;2022-10-31T05:14:19;13.90;99.90
41720;DHT22;27405;53.316;-6.294;2022-10-31T05:16:45;13.90;99.90
41720;DHT22;27405;53.316;-6.294;2022-10-31T05:19:10;13.90;99.90
41720;DHT22;27405;53.316;-6.294;2022-10-31T05:21:36;13.90;99.90
41720;DHT22;27405;53.316;-6.294;2022-10-31T05:24:02;13.90;99.90
41720;DHT22;27405;53.316;-6.294;2022-10-31T05:26:27;13.90;99.90
41720;DHT22;27405;53.316;-6.294;2022-10-31T05:28:53;13.90;99.90
41720;DHT22;27405;53.316;-6.294;2022-10-31T05:31:19;13.90;99.90
41720;DHT22;27405;53.316;-6.294;2022-10-31T05:33:44;13.90;99.90
41720;DHT22;27405;53.316;-6.294;2022-10-31T05:36:10;13.90;99.90
41720;DHT22;27405;53.316;-6.294;2022-10-31T05:38:35;13.90;99.90
41720;DHT22;27405;53.316;-6.294;2022-10-31T05:41:01;13.90;99.90
41720;DHT22;27405;53.316;-6.294;2022-10-31T05:43:28;13.90;99.90
41720;DHT22;27405;53.316;-6.294;2022-10-31T05:45:54;13.90;99.90
41720;DHT22;27405;53.316;-6.294;2022-10-31T05:48:20;13.90;99.90
41720;DHT22;27405;53.316;-6.294;2022-10-31T05:50:47;13.90;99.90
41720;DHT22;27405;53.316;-6.294;2022-10-31T05:53:13;13.90;99.90
41720;DHT22;27405;53.316;-6.294;2022-10-31T05:55:39;14.00;99.90
41720;DHT22;27405;53.316;-6.294;2022-10-31T05:58:06;14.00;99.90
41720;DHT22;27405;53.316;-6.294;2022-10-31T06:00:32;14.00;99.90
41720;DHT22;27405;53.316;-6.294;2022-10-31T06:03:05;14.00;99.90
41720;DHT22;27405;53.316;-6.294;2022-10-31T06:05:31;14.00;99.90
41720;DHT22;27405;53.316;-6.294;2022-10-31T06:07:57;14.00;99.90
41720;DHT22;27405;53.316;-6.294;2022-10-31T06:10:24;14.00;99.90
41720;DHT22;27405;53.316;-6.294;2022-10-31T06:12:50;14.00;99.90
41720;DHT22;27405;53.316;-6.294;2022-10-31T06:15:16;14.00;99.90
41720;DHT22;27405;53.316;-6.294;2022-10-31T06:17:42;14.00;99.90
41720;DHT22;27405;53.316;-6.294;2022-10-31T06:20:08;14.00;99.90
41720;DHT22;27405;53.316;-6.294;2022-10-31T06:22:33;14.00;99.90
41720;DHT22;27405;53.316;-6.294;2022-10-31T06:24:59;14.00;99.90
41720;DHT22;27405;53.316;-6.294;2022-10-31T06:27:25;14.00;99.90
41720;DHT22;27405;53.316;-6.294;2022-10-31T06:29:51;13.90;99.90
41720;DHT22;27405;53.316;-6.294;2022-10-31T06:32:17;14.00;99.90
41720;DHT22;27405;53.316;-6.294;2022-10-31T06:34:43;14.00;99.90
41720;DHT22;27405;53.316;-6.294;2022-10-31T06:37:11;14.00;99.90
41720;DHT22;27405;53.316;-6.294;2022-10-31T06:39:37;14.00;99.90
41720;DHT22;27405;53.316;-6.294;2022-10-31T06:42:03;14.00;99.90
41720;DHT22;27405;53.316;-6.294;2022-10-31T06:44:29;14.00;99.90
41720;DHT22;27405;53.316;-6.294;2022-10-31T06:46:55;14.00;99.90
41720;DHT22;27405;53.316;-6.294;2022-10-31T06:49:21;14.10;99.90
41720;DHT22;27405;53.316;-6.294;2022-10-31T06:51:50;14.10;99.90
41720;DHT22;27405;53.316;-6.294;2022-10-31T06:54:16;14.10;99.90
41720;DHT22;27405;53.316;-6.294;2022-10-31T06:56:42;14.10;99.90
41720;DHT22;27405;53.316;-6.294;2022-10-31T06:59:08;14.10;99.90
41720;DHT22;27405;53.316;-6.294;2022-10-31T07:01:33;14.00;99.90
41720;DHT22;27405;53.316;-6.294;2022-10-31T07:04:00;14.00;99.90
41720;DHT22;27405;53.316;-6.294;2022-10-31T07:06:26;14.00;99.90
41720;DHT22;27405;53.316;-6.294;2022-10-31T07:08:51;14.00;99.90
41720;DHT22;27405;53.316;-6.294;2022-10-31T07:11:17;14.00;99.90
41720;DHT22;27405;53.316;-6.294;2022-10-31T07:13:43;14.00;99.90
41720;DHT22;27405;53.316;-6.294;2022-10-31T07:16:09;14.10;99.90
41720;DHT22;27405;53.316;-6.294;2022-10-31T07:18:37;14.10;99.90
41720;DHT22;27405;53.316;-6.294;2022-10-31T07:21:03;14.10;99.90
41720;DHT22;27405;53.316;-6.294;2022-10-31T07:23:30;14.20;99.90
41720;DHT22;27405;53.316;-6.294;2022-10-31T07:25:56;14.20;99.90
41720;DHT22;27405;53.316;-6.294;2022-10-31T07:28:23;14.20;99.90
41720;DHT22;27405;53.316;-6.294;2022-10-31T07:30:56;14.20;99.90
41720;DHT22;27405;53.316;-6.294;2022-10-31T07:33:23;14.20;99.90
41720;DHT22;27405;53.316;-6.294;2022-10-31T07:35:51;14.20;99.90
41720;DHT22;27405;53.316;-6.294;2022-10-31T07:38:17;14.30;99.90
41720;DHT22;27405;53.316;-6.294;2022-10-31T07:40:43;14.30;99.90
41720;DHT22;27405;53.316;-6.294;2022-10-31T07:43:11;14.30;99.90
41720;DHT22;27405;53.316;-6.294;2022-10-31T07:45:37;14.30;99.90
41720;DHT22;27405;53.316;-6.294;2022-10-31T07:48:03;14.30;99.90
41720;DHT22;27405;53.316;-6.294;2022-10-31T07:50:30;14.30;99.90
41720;DHT22;27405;53.316;-6.294;2022-10-31T07:55:28;14.30;99.90
41720;DHT22;27405;53.316;-6.294;2022-10-31T07:58:09;14.30;99.90
41720;DHT22;27405;53.316;-6.294;2022-10-31T08:00:36;14.20;99.90
41720;DHT22;27405;53.316;-6.294;2022-10-31T08:03:05;14.20;99.90
41720;DHT22;27405;53.316;-6.294;2022-10-31T08:05:31;14.20;99.90
41720;DHT22;27405;53.316;-6.294;2022-10-31T08:07:58;14.20;99.90
41720;DHT22;27405;53.316;-6.294;2022-10-31T08:10:25;14.20;99.90
41720;DHT22;27405;53.316;-6.294;2022-10-31T08:13:05;14.20;99.90
41720;DHT22;27405;53.316;-6.294;2022-10-31T08:15:32;14.20;99.90
41720;DHT22;27405;53.316;-6.294;2022-10-31T08:17:59;14.30;99.90
41720;DHT22;27405;53.316;-6.294;2022-10-31T08:20:25;14.30;99.90
41720;DHT22;27405;53.316;-6.294;2022-10-31T08:23:02;14.30;99.90
41720;DHT22;27405;53.316;-6.294;2022-10-31T08:25:30;14.40;99.90
41720;DHT22;27405;53.316;-6.294;2022-10-31T08:27:56;14.40;99.90
41720;DHT22;27405;53.316;-6.294;2022-10-31T08:30:26;14.40;99.90
41720;DHT22;27405;53.316;-6.294;2022-10-31T08:35:32;14.60;99.90
41720;DHT22;27405;53.316;-6.294;2022-10-31T08:37:58;14.60;99.90
41720;DHT22;27405;53.316;-6.294;2022-10-31T08:40:26;14.60;99.90
41720;DHT22;27405;53.316;-6.294;2022-10-31T08:43:03;14.60;99.90
41720;DHT22;27405;53.316;-6.294;2022-10-31T08:45:30;14.70;99.90
41720;DHT22;27405;53.316;-6.294;2022-10-31T08:48:00;14.70;99.90
41720;DHT22;27405;53.316;-6.294;2022-10-31T08:50:27;14.80;99.90
41720;DHT22;27405;53.316;-6.294;2022-10-31T08:52:52;14.80;99.90
41720;DHT22;27405;53.316;-6.294;2022-10-31T08:55:18;14.80;99.90
41720;DHT22;27405;53.316;-6.294;2022-10-31T08:57:44;14.80;99.90
41720;DHT22;27405;53.316;-6.294;2022-10-31T09:00:10;14.80;99.90
41720;DHT22;27405;53.316;-6.294;2022-10-31T09:02:36;14.90;99.90
41720;DHT22;27405;53.316;-6.294;2022-10-31T09:05:04;14.90;99.90
41720;DHT22;27405;53.316;-6.294;2022-10-31T09:07:30;14.90;99.90
41720;DHT22;27405;53.316;-6.294;2022-10-31T09:09:55;15.00;99.90
41720;DHT22;27405;53.316;-6.294;2022-10-31T09:12:21;15.00;99.90
41720;DHT22;27405;53.316;-6.294;2022-10-31T09:14:49;15.00;99.90
41720;DHT22;27405;53.316;-6.294;2022-10-31T09:17:14;15.00;99.90
41720;DHT22;27405;53.316;-6.294;2022-10-31T09:19:40;15.00;99.90
41720;DHT22;27405;53.316;-6.294;2022-10-31T09:22:06;15.00;99.90
41720;DHT22;27405;53.316;-6.294;2022-10-31T09:24:31;15.00;99.90
41720;DHT22;27405;53.316;-6.294;2022-10-31T09:26:58;15.00;99.90
41720;DHT22;27405;53.316;-6.294;2022-10-31T09:29:24;15.00;99.90
41720;DHT22;27405;53.316;-6.294;2022-10-31T09:31:49;15.00;99.90
41720;DHT22;27405;53.316;-6.294;2022-10-31T09:34:15;15.00;99.90
41720;DHT22;27405;53.316;-6.294;2022-10-31T09:36:41;14.90;99.90
41720;DHT22;27405;53.316;-6.294;2022-10-31T09:39:08;15.00;99.90
41720;DHT22;27405;53.316;-6.294;2022-10-31T09:52:36;15.00;99.90
41720;DHT22;27405;53.316;-6.294;2022-10-31T09:55:16;15.10;99.90
41720;DHT22;27405;53.316;-6.294;2022-10-31T09:57:44;15.10;99.90
41720;DHT22;27405;53.316;-6.294;2022-10-31T10:00:16;15.20;99.90
41720;DHT22;27405;53.316;-6.294;2022-10-31T10:03:29;15.30;99.90
41720;DHT22;27405;53.316;-6.294;2022-10-31T10:06:04;15.30;99.90
41720;DHT22;27405;53.316;-6.294;2022-10-31T10:08:32;15.40;99.90
41720;DHT22;27405;53.316;-6.294;2022-10-31T10:17:06;15.60;99.90
41720;DHT22;27405;53.316;-6.294;2022-10-31T10:30:42;15.80;99.90
41720;DHT22;27405;53.316;-6.294;2022-10-31T10:33:12;15.80;99.90
41720;DHT22;27405;53.316;-6.294;2022-10-31T10:35:47;15.90;99.90
41720;DHT22;27405;53.316;-6.294;2022-10-31T10:38:28;15.90;99.90
41720;DHT22;27405;53.316;-6.294;2022-10-31T10:40:55;16.00;99.90
41720;DHT22;27405;53.316;-6.294;2022-10-31T10:46:19;16.20;99.90
41720;DHT22;27405;53.316;-6.294;2022-10-31T10:49:14;16.20;99.90
41720;DHT22;27405;53.316;-6.294;2022-10-31T10:59:47;16.50;99.90
41720;DHT22;27405;53.316;-6.294;2022-10-31T11:02:19;16.50;99.90
41720;DHT22;27405;53.316;-6.294;2022-10-31T11:04:48;16.60;99.90
41720;DHT22;27405;53.316;-6.294;2022-10-31T11:07:15;16.60;99.90
41720;DHT22;27405;53.316;-6.294;2022-10-31T11:09:40;16.60;99.90
41720;DHT22;27405;53.316;-6.294;2022-10-31T11:12:15;16.70;99.90
41720;DHT22;27405;53.316;-6.294;2022-10-31T11:14:46;16.70;99.90
41720;DHT22;27405;53.316;-6.294;2022-10-31T11:17:36;16.80;99.90
41720;DHT22;27405;53.316;-6.294;2022-10-31T11:22:36;16.80;99.90
41720;DHT22;27405;53.316;-6.294;2022-10-31T11:25:24;16.70;99.90
41720;DHT22;27405;53.316;-6.294;2022-10-31T11:28:08;16.70;99.90
41720;DHT22;27405;53.316;-6.294;2022-10-31T11:31:04;16.80;99.90
41720;DHT22;27405;53.316;-6.294;2022-10-31T11:33:35;16.90;99.90
41720;DHT22;27405;53.316;-6.294;2022-10-31T11:38:45;17.20;99.90
41720;DHT22;27405;53.316;-6.294;2022-10-31T11:41:17;17.30;99.90
41720;DHT22;27405;53.316;-6.294;2022-10-31T11:43:50;17.30;99.90
41720;DHT22;27405;53.316;-6.294;2022-10-31T11:48:55;17.30;99.90
41720;DHT22;27405;53.316;-6.294;2022-10-31T11:51:28;17.30;99.90
41720;DHT22;27405;53.316;-6.294;2022-10-31T11:53:57;17.30;99.90
41720;DHT22;27405;53.316;-6.294;2022-10-31T11:56:23;17.20;99.90
41720;DHT22;27405;53.316;-6.294;2022-10-31T11:59:04;17.10;99.90
41720;DHT22;27405;53.316;-6.294;2022-10-31T12:01:32;17.10;99.90
41720;DHT22;27405;53.316;-6.294;2022-10-31T12:04:07;17.00;99.90
41720;DHT22;27405;53.316;-6.294;2022-10-31T12:06:36;17.00;99.90
41720;DHT22;27405;53.316;-6.294;2022-10-31T12:09:09;16.90;99.90
41720;DHT22;27405;53.316;-6.294;2022-10-31T12:17:24;17.00;99.90
41720;DHT22;27405;53.316;-6.294;2022-10-31T12:25:50;17.10;99.90
41720;DHT22;27405;53.316;-6.294;2022-10-31T12:31:31;17.20;99.90
41720;DHT22;27405;53.316;-6.294;2022-10-31T12:39:51;17.10;99.90
41720;DHT22;27405;53.316;-6.294;2022-10-31T12:48:10;16.90;99.90
41720;DHT22;27405;53.316;-6.294;2022-10-31T12:59:21;16.70;99.90
41720;DHT22;27405;53.316;-6.294;2022-10-31T13:07:19;16.50;99.90
41720;DHT22;27405;53.316;-6.294;2022-10-31T13:12:43;16.40;99.90
41720;DHT22;27405;53.316;-6.294;2022-10-31T13:15:23;16.30;99.90
41720;DHT22;27405;53.316;-6.294;2022-10-31T13:18:03;16.30;99.90
41720;DHT22;27405;53.316;-6.294;2022-10-31T13:20:34;16.20;99.90
41720;DHT22;27405;53.316;-6.294;2022-10-31T13:23:32;16.10;99.90
41720;DHT22;27405;53.316;-6.294;2022-10-31T13:26:02;16.10;99.90
41720;DHT22;27405;53.316;-6.294;2022-10-31T13:28:43;16.00;99.90
41720;DHT22;27405;53.316;-6.294;2022-10-31T13:31:09;15.90;99.90
41720;DHT22;27405;53.316;-6.294;2022-10-31T13:33:38;15.90;99.90
41720;DHT22;27405;53.316;-6.294;2022-10-31T13:44:35;15.70;99.90
41720;DHT22;27405;53.316;-6.294;2022-10-31T13:47:26;15.70;99.90
41720;DHT22;27405;53.316;-6.294;2022-10-31T13:50:05;15.60;99.90
41720;DHT22;27405;53.316;-6.294;2022-10-31T13:52:31;15.60;99.90
41720;DHT22;27405;53.316;-6.294;2022-10-31T13:54:56;15.60;99.90
41720;DHT22;27405;53.316;-6.294;2022-10-31T13:57:34;15.50;99.90
41720;DHT22;27405;53.316;-6.294;2022-10-31T14:00:24;15.50;99.90
41720;DHT22;27405;53.316;-6.294;2022-10-31T14:02:56;15.50;99.90
41720;DHT22;27405;53.316;-6.294;2022-10-31T14:05:31;15.50;99.90
41720;DHT22;27405;53.316;-6.294;2022-10-31T14:07:59;15.50;99.90
41720;DHT22;27405;53.316;-6.294;2022-10-31T14:13:20;15.60;99.90
41720;DHT22;27405;53.316;-6.294;2022-10-31T14:16:06;15.60;99.90
41720;DHT22;27405;53.316;-6.294;2022-10-31T14:18:46;15.70;99.90
41720;DHT22;27405;53.316;-6.294;2022-10-31T14:21:26;15.60;99.90
41720;DHT22;27405;53.316;-6.294;2022-10-31T14:23:53;15.60;99.90
41720;DHT22;27405;53.316;-6.294;2022-10-31T14:26:21;15.60;99.90
41720;DHT22;27405;53.316;-6.294;2022-10-31T14:29:26;15.50;99.90
41720;DHT22;27405;53.316;-6.294;2022-10-31T14:31:58;15.50;99.90
41720;DHT22;27405;53.316;-6.294;2022-10-31T14:34:31;15.50;99.90
41720;DHT22;27405;53.316;-6.294;2022-10-31T14:45:30;15.60;99.90
41720;DHT22;27405;53.316;-6.294;2022-10-31T14:53:32;15.50;99.90
41720;DHT22;27405;53.316;-6.294;2022-10-31T14:55:59;15.50;99.90
41720;DHT22;27405;53.316;-6.294;2022-10-31T15:01:05;15.50;99.90
41720;DHT22;27405;53.316;-6.294;2022-10-31T15:03:34;15.50;99.90
41720;DHT22;27405;53.316;-6.294;2022-10-31T15:06:02;15.40;99.90
41720;DHT22;27405;53.316;-6.294;2022-10-31T15:08:35;15.40;99.90
41720;DHT22;27405;53.316;-6.294;2022-10-31T15:13:47;15.20;99.90
41720;DHT22;27405;53.316;-6.294;2022-10-31T15:16:16;15.20;99.90
41720;DHT22;27405;53.316;-6.294;2022-10-31T15:18:58;15.00;99.90
41720;DHT22;27405;53.316;-6.294;2022-10-31T15:21:26;15.00;99.90
41720;DHT22;27405;53.316;-6.294;2022-10-31T15:23:58;14.80;99.90
41720;DHT22;27405;53.316;-6.294;2022-10-31T15:26:38;14.80;99.90
41720;DHT22;27405;53.316;-6.294;2022-10-31T15:29:13;14.70;99.90
41720;DHT22;27405;53.316;-6.294;2022-10-31T15:31:48;14.70;99.90
41720;DHT22;27405;53.316;-6.294;2022-10-31T15:34:20;14.70;99.90
41720;DHT22;27405;53.316;-6.294;2022-10-31T15:36:50;14.70;99.90
41720;DHT22;27405;53.316;-6.294;2022-10-31T15:39:16;14.60;99.90
41720;DHT22;27405;53.316;-6.294;2022-10-31T15:41:56;14.60;99.90
41720;DHT22;27405;53.316;-6.294;2022-10-31T15:44:28;14.60;99.90
41720;DHT22;27405;53.316;-6.294;2022-10-31T15:47:00;14.60;99.90
41720;DHT22;27405;53.316;-6.294;2022-10-31T15:49:31;14.60;99.90
41720;DHT22;27405;53.316;-6.294;2022-10-31T15:52:47;14.60;99.90
41720;DHT22;27405;53.316;-6.294;2022-10-31T15:54:50;14.60;99.90
41720;DHT22;27405;53.316;-6.294;2022-10-31T15:57:17;14.60;99.90
41720;DHT22;27405;53.316;-6.294;2022-10-31T15:59:47;14.50;99.90
41720;DHT22;27405;53.316;-6.294;2022-10-31T16:02:18;14.50;99.90
41720;DHT22;27405;53.316;-6.294;2022-10-31T16:04:54;14.50;99.90
41720;DHT22;27405;53.316;-6.294;2022-10-31T16:07:21;14.50;99.90
41720;DHT22;27405;53.316;-6.294;2022-10-31T16:12:21;14.50;99.90
41720;DHT22;27405;53.316;-6.294;2022-10-31T16:14:47;14.50;99.90
41720;DHT22;27405;53.316;-6.294;2022-10-31T16:17:15;14.40;99.90
41720;DHT22;27405;53.316;-6.294;2022-10-31T16:19:58;14.40;99.90
41720;DHT22;27405;53.316;-6.294;2022-10-31T16:22:33;14.40;99.90
41720;DHT22;27405;53.316;-6.294;2022-10-31T16:27:33;14.40;99.90
41720;DHT22;27405;53.316;-6.294;2022-10-31T16:30:00;14.30;99.90
41720;DHT22;27405;53.316;-6.294;2022-10-31T16:37:43;14.30;99.90
41720;DHT22;27405;53.316;-6.294;2022-10-31T16:40:13;14.20;99.90
41720;DHT22;27405;53.316;-6.294;2022-10-31T16:42:40;14.20;99.90
41720;DHT22;27405;53.316;-6.294;2022-10-31T16:45:06;14.30;99.90
41720;DHT22;27405;53.316;-6.294;2022-10-31T16:47:33;14.20;99.90
41720;DHT22;27405;53.316;-6.294;2022-10-31T16:49:59;14.20;99.90
41720;DHT22;27405;53.316;-6.294;2022-10-31T16:52:26;14.10;99.90
41720;DHT22;27405;53.316;-6.294;2022-10-31T16:54:51;14.10;99.90
41720;DHT22;27405;53.316;-6.294;2022-10-31T16:57:22;14.10;99.90
41720;DHT22;27405;53.316;-6.294;2022-10-31T16:59:51;14.10;99.90
41720;DHT22;27405;53.316;-6.294;2022-10-31T17:02:19;14.10;99.90
41720;DHT22;27405;53.316;-6.294;2022-10-31T17:04:45;14.10;99.90
41720;DHT22;27405;53.316;-6.294;2022-10-31T17:07:11;14.10;99.90
41720;DHT22;27405;53.316;-6.294;2022-10-31T17:09:36;14.10;99.90
41720;DHT22;27405;53.316;-6.294;2022-10-31T17:12:02;14.10;99.90
41720;DHT22;27405;53.316;-6.294;2022-10-31T17:14:29;14.10;99.90
41720;DHT22;27405;53.316;-6.294;2022-10-31T17:16:55;14.10;99.90
41720;DHT22;27405;53.316;-6.294;2022-10-31T17:19:21;14.10;99.90
41720;DHT22;27405;53.316;-6.294;2022-10-31T17:21:47;14.00;99.90
41720;DHT22;27405;53.316;-6.294;2022-10-31T17:24:14;14.10;99.90
41720;DHT22;27405;53.316;-6.294;2022-10-31T17:26:40;14.00;99.90
41720;DHT22;27405;53.316;-6.294;2022-10-31T17:29:06;14.00;99.90
41720;DHT22;27405;53.316;-6.294;2022-10-31T17:31:34;14.00;99.90
41720;DHT22;27405;53.316;-6.294;2022-10-31T17:34:01;14.00;99.90
41720;DHT22;27405;53.316;-6.294;2022-10-31T17:36:31;13.90;99.90
41720;DHT22;27405;53.316;-6.294;2022-10-31T17:38:57;14.00;99.90
41720;DHT22;27405;53.316;-6.294;2022-10-31T17:41:23;14.00;99.90
41720;DHT22;27405;53.316;-6.294;2022-10-31T17:43:56;14.00;99.90
41720;DHT22;27405;53.316;-6.294;2022-10-31T17:46:22;14.00;99.90
41720;DHT22;27405;53.316;-6.294;2022-10-31T17:48:47;13.90;99.90
41720;DHT22;27405;53.316;-6.294;2022-10-31T17:51:13;14.00;99.90
41720;DHT22;27405;53.316;-6.294;2022-10-31T17:53:39;13.90;99.90
41720;DHT22;27405;53.316;-6.294;2022-10-31T17:56:06;13.90;99.90
41720;DHT22;27405;53.316;-6.294;2022-10-31T17:58:34;13.90;99.90
41720;DHT22;27405;53.316;-6.294;2022-10-31T18:01:00;14.00;99.90
41720;DHT22;27405;53.316;-6.294;2022-10-31T18:03:26;14.00;99.90
41720;DHT22;27405;53.316;-6.294;2022-10-31T18:05:55;13.90;99.90